UUWW/VKO METAR and TAF weather

Enter ICAO airport designator
Station Type Date Time Source
UUWW METAR 2018/12/13 06:00 UTC NOAA

UUWW 130600Z 05007MPS 7000 -SN BKN008 BKN023 M00/M02 Q1018 R06/550247 TEMPO 1200 SHSN BKN012CB


Station Type Date Time Source
UUWW Decoded METAR 2018/12/13 06:00 UTC NOAA

Moscow / Vnukovo , Russia (UUWW) 55-39N 037-16E
Dec 13, 2018 - 01:00 AM EST / 2018.12.13 0600 UTC
Wind: from the NE (050 degrees) at 16 MPH (14 KT):0
Visibility: 4 mile(s):0
Sky conditions: mostly cloudy
Weather: light snow; Cumulonimbus clouds observed
Temperature: 32 F (0 C)
Windchill: 21 F (-6 C):1
Dew Point: 28 F (-2 C)
Relative Humidity: 86%
Pressure (altimeter): 30.06 in. Hg (1018 hPa)
ob: UUWW 130600Z 05007MPS 7000 -SN BKN008 BKN023 M00/M02 Q1018 R06/550247 TEMPO 1200 SHSN BKN012CB
cycle: 6

Station Type Date Time Source
UUWW TAF 2018/12/13 06:21 UTC NOAA

TAF UUWW 130458Z 1306/1406 04007G13MPS 6000 BKN005 OVC011 TXM01/1306Z TNM03/1321Z
TEMPO 1306/1315 1000 SHSN BKN003 BKN012CB PROB40
TEMPO 1306/1315 -FZRA OVC003
TEMPO 1315/1324 2100 -SHSN BKN004 BKN012CB PROB40
TEMPO 1315/1321 -FZRA OVC004


Example: see airport list